GIA5211 OEMA-WADL
Flight info
| Callsign | GIA5211 |
|---|---|
| Flight time | N/A |
| Altitude | 37000 |
| Route | MEDRO M872 BDB Y214 RAPMA DCT DEGNO DCT DAPOL L692 GISKA N569 LOTAV M300 NITIX/N0481F390 M300 VASTU P895 BIKOK N640 KAT M766 ISBIX/N0476F410 M766 OBMAT DCT BIDAK DCT CA G461 ANY T3 BA T19 SOVKA |
| Aircraft | B77W/H-SDE1E2E3FGHIJ4J5M1RWXY/LB1D1 |
Departure
| Time | 2026-05-05 12:53 |
|---|---|
| Airport | Prince Mohammad Bin Abdulaziz Airport (OEMA) |
Arrival
| Time | N/A |
|---|---|
| Airport | Lombok International Airport (WADL) |
| Time | Latitude | Longitude | Altitude | Speed | Heading |
|---|---|---|---|---|---|
| 2026-05-05 12:31 | 24.55029 | 39.71364 | 2145 ft | 0 kts | 78° |
| 2026-05-05 12:42 | 24.55025 | 39.71342 | 2145 ft | 4 kts | 79° |
| 2026-05-05 12:42 | 24.55020 | 39.71315 | 2141 ft | 3 kts | 70° |
| 2026-05-05 12:42 | 24.55012 | 39.71300 | 2141 ft | 2 kts | 42° |
| 2026-05-05 12:42 | 24.55000 | 39.71291 | 2141 ft | 2 kts | 14° |
| 2026-05-05 12:43 | 24.54985 | 39.71288 | 2141 ft | 2 kts | 0° |
| 2026-05-05 12:43 | 24.54974 | 39.71289 | 2140 ft | 2 kts | 354° |
| 2026-05-05 12:43 | 24.54968 | 39.71290 | 2141 ft | 0 kts | 352° |
| 2026-05-05 12:44 | 24.54977 | 39.71288 | 2140 ft | 3 kts | 351° |
| 2026-05-05 12:45 | 24.55005 | 39.71283 | 2139 ft | 6 kts | 349° |
| 2026-05-05 12:45 | 24.55053 | 39.71272 | 2145 ft | 8 kts | 348° |
| 2026-05-05 12:45 | 24.55106 | 39.71260 | 2145 ft | 8 kts | 348° |
| 2026-05-05 12:45 | 24.55159 | 39.71249 | 2145 ft | 8 kts | 349° |
| 2026-05-05 12:46 | 24.55210 | 39.71235 | 2145 ft | 8 kts | 336° |
| 2026-05-05 12:46 | 24.55236 | 39.71184 | 2144 ft | 8 kts | 279° |
| 2026-05-05 12:46 | 24.55229 | 39.71123 | 2143 ft | 9 kts | 258° |
| 2026-05-05 12:46 | 24.55234 | 39.71055 | 2140 ft | 10 kts | 302° |
| 2026-05-05 12:47 | 24.55302 | 39.71023 | 2139 ft | 12 kts | 348° |
| 2026-05-05 12:47 | 24.55389 | 39.71005 | 2139 ft | 14 kts | 349° |
| 2026-05-05 12:47 | 24.55489 | 39.70984 | 2140 ft | 15 kts | 349° |
| 2026-05-05 12:47 | 24.55598 | 39.70961 | 2140 ft | 17 kts | 349° |
| 2026-05-05 12:48 | 24.55716 | 39.70936 | 2140 ft | 18 kts | 349° |
| 2026-05-05 12:48 | 24.55842 | 39.70910 | 2141 ft | 19 kts | 349° |
| 2026-05-05 12:48 | 24.55978 | 39.70880 | 2142 ft | 20 kts | 348° |
| 2026-05-05 12:48 | 24.56121 | 39.70848 | 2142 ft | 22 kts | 349° |
| 2026-05-05 12:49 | 24.56272 | 39.70817 | 2143 ft | 22 kts | 349° |
| 2026-05-05 12:49 | 24.56428 | 39.70784 | 2144 ft | 23 kts | 349° |
| 2026-05-05 12:49 | 24.56591 | 39.70748 | 2144 ft | 24 kts | 348° |
| 2026-05-05 12:49 | 24.56759 | 39.70713 | 2144 ft | 25 kts | 349° |
| 2026-05-05 12:50 | 24.56927 | 39.70677 | 2144 ft | 25 kts | 348° |
| 2026-05-05 12:50 | 24.57095 | 39.70641 | 2144 ft | 25 kts | 349° |
| 2026-05-05 12:50 | 24.57263 | 39.70606 | 2145 ft | 25 kts | 349° |
| 2026-05-05 12:50 | 24.57422 | 39.70571 | 2146 ft | 22 kts | 349° |
| 2026-05-05 12:51 | 24.57558 | 39.70542 | 2146 ft | 16 kts | 350° |
| 2026-05-05 12:51 | 24.57634 | 39.70512 | 2147 ft | 10 kts | 314° |
| 2026-05-05 12:51 | 24.57642 | 39.70437 | 2147 ft | 10 kts | 260° |
| 2026-05-05 12:51 | 24.57621 | 39.70364 | 2147 ft | 10 kts | 230° |
| 2026-05-05 12:52 | 24.57557 | 39.70355 | 2146 ft | 5 kts | 168° |
| 2026-05-05 12:52 | 24.57556 | 39.70355 | 2146 ft | 0 kts | 168° |
| 2026-05-05 12:52 | 24.57468 | 39.70373 | 2145 ft | 30 kts | 169° |
| 2026-05-05 12:52 | 24.57057 | 39.70459 | 2141 ft | 91 kts | 169° |
| 2026-05-05 12:53 | 24.56262 | 39.70627 | 2137 ft | 140 kts | 169° |
| 2026-05-05 12:53 | 24.55168 | 39.70856 | 2127 ft | 177 kts | 172° |
| 2026-05-05 12:53 | 24.53908 | 39.71131 | 2367 ft | 189 kts | 171° |
| 2026-05-05 12:53 | 24.52627 | 39.71423 | 2801 ft | 193 kts | 174° |
| 2026-05-05 12:54 | 24.49951 | 39.71977 | 3794 ft | 194 kts | 176° |
| 2026-05-05 12:54 | 24.48622 | 39.72250 | 4394 ft | 202 kts | 178° |
| 2026-05-05 12:54 | 24.47144 | 39.72544 | 4687 ft | 231 kts | 177° |
| 2026-05-05 12:55 | 24.45471 | 39.73080 | 4823 ft | 276 kts | 152° |
| 2026-05-05 12:55 | 24.44173 | 39.74715 | 5492 ft | 297 kts | 116° |
| 2026-05-05 12:55 | 24.43801 | 39.76954 | 6392 ft | 301 kts | 90° |
| 2026-05-05 12:55 | 24.43883 | 39.79265 | 7196 ft | 304 kts | 88° |
| 2026-05-05 12:56 | 24.43999 | 39.81591 | 8093 ft | 306 kts | 88° |
| 2026-05-05 12:56 | 24.44096 | 39.83936 | 8929 ft | 310 kts | 89° |
| 2026-05-05 12:56 | 24.44170 | 39.86334 | 9694 ft | 317 kts | 90° |
| 2026-05-05 12:56 | 24.44226 | 39.88778 | 10397 ft | 326 kts | 91° |
| 2026-05-05 12:57 | 24.44269 | 39.91359 | 10725 ft | 351 kts | 91° |
| 2026-05-05 12:57 | 24.44306 | 39.94140 | 10966 ft | 378 kts | 91° |
| 2026-05-05 12:57 | 24.44345 | 39.97114 | 11382 ft | 396 kts | 91° |
| 2026-05-05 12:57 | 24.44408 | 40.00163 | 12189 ft | 403 kts | 91° |
| 2026-05-05 12:58 | 24.44486 | 40.03256 | 13049 ft | 407 kts | 91° |
| 2026-05-05 12:58 | 24.44567 | 40.06369 | 13930 ft | 411 kts | 91° |
| 2026-05-05 12:58 | 24.44648 | 40.09516 | 14720 ft | 415 kts | 91° |
| 2026-05-05 12:58 | 24.44726 | 40.12700 | 15491 ft | 419 kts | 91° |
| 2026-05-05 12:59 | 24.44803 | 40.15917 | 16272 ft | 424 kts | 91° |
| 2026-05-05 12:59 | 24.44879 | 40.19170 | 17057 ft | 429 kts | 91° |
| 2026-05-05 12:59 | 24.44955 | 40.22464 | 17840 ft | 434 kts | 91° |
| 2026-05-05 13:00 | 24.45107 | 40.29129 | 19166 ft | 446 kts | 91° |
| 2026-05-05 13:00 | 24.45184 | 40.32555 | 19781 ft | 453 kts | 91° |
| 2026-05-05 13:01 | 24.45416 | 40.43111 | 21697 ft | 470 kts | 91° |
| 2026-05-05 13:01 | 24.45494 | 40.46717 | 22304 ft | 475 kts | 91° |
| 2026-05-05 13:01 | 24.45571 | 40.50366 | 22899 ft | 481 kts | 91° |
| 2026-05-05 13:01 | 24.45649 | 40.54061 | 23486 ft | 487 kts | 91° |
| 2026-05-05 13:02 | 24.45727 | 40.57790 | 23972 ft | 492 kts | 91° |
| 2026-05-05 13:02 | 24.45760 | 40.61564 | 24441 ft | 497 kts | 94° |
| 2026-05-05 13:02 | 24.45508 | 40.65349 | 24911 ft | 499 kts | 99° |
| 2026-05-05 13:02 | 24.45111 | 40.69155 | 25373 ft | 504 kts | 100° |
| 2026-05-05 13:03 | 24.44689 | 40.72998 | 25844 ft | 510 kts | 100° |
| 2026-05-05 13:03 | 24.44266 | 40.76874 | 26276 ft | 515 kts | 100° |
| 2026-05-05 13:03 | 24.43850 | 40.80802 | 26712 ft | 520 kts | 100° |
| 2026-05-05 13:03 | 24.43443 | 40.84762 | 27157 ft | 525 kts | 100° |
| 2026-05-05 13:04 | 24.43037 | 40.88765 | 27585 ft | 530 kts | 99° |
| 2026-05-05 13:04 | 24.42629 | 40.92801 | 28009 ft | 535 kts | 99° |
| 2026-05-05 13:04 | 24.42357 | 40.95491 | 28274 ft | 538 kts | 100° |
| 2026-05-05 13:04 | 24.41939 | 40.99592 | 28679 ft | 543 kts | 100° |
| 2026-05-05 13:05 | 24.41517 | 41.03722 | 29090 ft | 547 kts | 100° |
| 2026-05-05 13:05 | 24.41089 | 41.07886 | 29482 ft | 551 kts | 100° |
| 2026-05-05 13:05 | 24.40652 | 41.12079 | 29870 ft | 555 kts | 100° |
| 2026-05-05 13:05 | 24.40209 | 41.16296 | 30198 ft | 558 kts | 100° |
| 2026-05-05 13:06 | 24.39759 | 41.20541 | 30527 ft | 561 kts | 100° |
| 2026-05-05 13:06 | 24.39309 | 41.24792 | 30863 ft | 563 kts | 100° |
| 2026-05-05 13:06 | 24.38856 | 41.29062 | 31167 ft | 565 kts | 101° |
| 2026-05-05 13:06 | 24.38399 | 41.33353 | 31441 ft | 567 kts | 101° |
| 2026-05-05 13:07 | 24.37941 | 41.37659 | 31745 ft | 569 kts | 101° |
| 2026-05-05 13:07 | 24.37482 | 41.41961 | 32111 ft | 568 kts | 101° |
| 2026-05-05 13:07 | 24.37023 | 41.46259 | 32529 ft | 566 kts | 101° |
| 2026-05-05 13:07 | 24.36563 | 41.50548 | 32947 ft | 565 kts | 101° |
| 2026-05-05 13:08 | 24.36104 | 41.54816 | 33313 ft | 564 kts | 101° |
| 2026-05-05 13:08 | 24.35643 | 41.59086 | 33687 ft | 564 kts | 101° |
| 2026-05-05 13:08 | 24.35181 | 41.63351 | 34025 ft | 563 kts | 102° |
| 2026-05-05 13:08 | 24.34717 | 41.67614 | 34333 ft | 562 kts | 102° |
| 2026-05-05 13:09 | 24.34254 | 41.71864 | 34645 ft | 561 kts | 102° |
| 2026-05-05 13:09 | 24.33790 | 41.76115 | 34848 ft | 563 kts | 102° |
| 2026-05-05 13:09 | 24.32619 | 41.84555 | 34894 ft | 549 kts | 109° |
| 2026-05-05 13:10 | 24.30555 | 41.92505 | 34906 ft | 540 kts | 113° |
| 2026-05-05 13:10 | 24.28400 | 42.00382 | 34908 ft | 539 kts | 112° |
| 2026-05-05 13:11 | 24.26302 | 42.08206 | 34918 ft | 538 kts | 112° |
| 2026-05-05 13:11 | 24.24217 | 42.16088 | 34917 ft | 539 kts | 112° |
| 2026-05-05 13:12 | 24.22133 | 42.23974 | 34920 ft | 539 kts | 112° |
| 2026-05-05 13:12 | 24.20039 | 42.31867 | 34925 ft | 540 kts | 112° |
| 2026-05-05 13:13 | 24.17937 | 42.39763 | 34926 ft | 540 kts | 112° |
| 2026-05-05 13:13 | 24.15830 | 42.47657 | 34924 ft | 540 kts | 112° |
| 2026-05-05 13:14 | 24.13721 | 42.55544 | 34931 ft | 540 kts | 112° |
| 2026-05-05 13:14 | 24.11607 | 42.63431 | 34935 ft | 540 kts | 112° |
| 2026-05-05 13:15 | 24.09491 | 42.71305 | 34933 ft | 539 kts | 112° |
| 2026-05-05 13:15 | 24.07373 | 42.79171 | 34931 ft | 539 kts | 112° |
| 2026-05-05 13:16 | 24.05253 | 42.87029 | 34937 ft | 538 kts | 112° |
| 2026-05-05 13:16 | 24.03133 | 42.94878 | 34938 ft | 538 kts | 112° |
| 2026-05-05 13:17 | 24.01012 | 43.02725 | 34940 ft | 538 kts | 112° |
| 2026-05-05 13:17 | 23.98904 | 43.10509 | 34944 ft | 538 kts | 112° |
| 2026-05-05 13:18 | 23.96775 | 43.18345 | 34945 ft | 538 kts | 112° |
| 2026-05-05 13:18 | 23.94640 | 43.26189 | 34941 ft | 538 kts | 112° |
| 2026-05-05 13:19 | 23.92502 | 43.34027 | 34947 ft | 539 kts | 111° |
| 2026-05-05 13:19 | 23.90354 | 43.41880 | 34934 ft | 539 kts | 111° |
| 2026-05-05 13:20 | 23.88204 | 43.49729 | 34933 ft | 539 kts | 111° |
| 2026-05-05 13:20 | 23.86051 | 43.57569 | 34919 ft | 539 kts | 111° |
| 2026-05-05 13:21 | 23.83893 | 43.65412 | 34912 ft | 538 kts | 111° |
| 2026-05-05 13:21 | 23.81736 | 43.73234 | 34899 ft | 538 kts | 111° |
| 2026-05-05 13:22 | 23.79574 | 43.81056 | 34892 ft | 538 kts | 111° |
| 2026-05-05 13:22 | 23.77577 | 43.88926 | 34881 ft | 540 kts | 105° |
| 2026-05-05 13:23 | 23.76662 | 43.97102 | 34880 ft | 544 kts | 97° |
| 2026-05-05 13:23 | 23.76134 | 44.05344 | 34870 ft | 544 kts | 97° |
| 2026-05-05 13:24 | 23.75575 | 44.13528 | 34868 ft | 543 kts | 98° |
| 2026-05-05 13:24 | 23.74962 | 44.21737 | 34867 ft | 543 kts | 98° |
| 2026-05-05 13:25 | 23.74332 | 44.29949 | 34863 ft | 542 kts | 98° |
| 2026-05-05 13:25 | 23.73701 | 44.38146 | 34867 ft | 542 kts | 98° |
| 2026-05-05 13:26 | 23.73070 | 44.46340 | 34864 ft | 542 kts | 98° |
| 2026-05-05 13:26 | 23.72430 | 44.54533 | 34861 ft | 541 kts | 98° |
| 2026-05-05 13:27 | 23.71792 | 44.62709 | 34859 ft | 541 kts | 98° |
| 2026-05-05 13:27 | 23.71150 | 44.70886 | 34855 ft | 540 kts | 98° |
| 2026-05-05 13:28 | 23.70505 | 44.79046 | 34853 ft | 540 kts | 98° |
| 2026-05-05 13:28 | 23.69857 | 44.87194 | 34844 ft | 539 kts | 98° |
| 2026-05-05 13:29 | 23.69201 | 44.95340 | 34845 ft | 538 kts | 98° |
| 2026-05-05 13:29 | 23.68541 | 45.03475 | 34834 ft | 538 kts | 98° |
| 2026-05-05 13:30 | 23.67879 | 45.11600 | 34833 ft | 538 kts | 98° |
| 2026-05-05 13:30 | 23.67216 | 45.19685 | 34819 ft | 538 kts | 98° |
| 2026-05-05 13:31 | 23.66547 | 45.27815 | 34813 ft | 538 kts | 98° |
| 2026-05-05 13:31 | 23.65875 | 45.35941 | 34807 ft | 538 kts | 98° |
| 2026-05-05 13:32 | 23.65198 | 45.44078 | 34797 ft | 538 kts | 98° |
| 2026-05-05 13:32 | 23.64517 | 45.52212 | 34786 ft | 538 kts | 98° |
| 2026-05-05 13:33 | 23.63834 | 45.60335 | 34786 ft | 538 kts | 98° |
| 2026-05-05 13:33 | 23.63147 | 45.68447 | 34781 ft | 537 kts | 98° |
| 2026-05-05 13:34 | 23.62457 | 45.76552 | 34777 ft | 536 kts | 98° |
| 2026-05-05 13:34 | 23.61764 | 45.84644 | 34776 ft | 536 kts | 98° |
| 2026-05-05 13:35 | 23.61068 | 45.92732 | 34777 ft | 535 kts | 98° |
| 2026-05-05 13:35 | 23.60368 | 46.00808 | 34778 ft | 535 kts | 98° |
| 2026-05-05 13:36 | 23.59665 | 46.08882 | 34783 ft | 535 kts | 98° |
| 2026-05-05 13:36 | 23.58962 | 46.16900 | 34788 ft | 535 kts | 98° |
| 2026-05-05 13:37 | 23.58249 | 46.24978 | 34789 ft | 535 kts | 98° |
| 2026-05-05 13:37 | 23.57534 | 46.33052 | 34783 ft | 535 kts | 98° |
| 2026-05-05 13:38 | 23.56813 | 46.41119 | 34790 ft | 534 kts | 98° |
| 2026-05-05 13:38 | 23.56091 | 46.49175 | 34783 ft | 534 kts | 98° |
| 2026-05-05 13:39 | 23.55361 | 46.57228 | 34789 ft | 534 kts | 98° |
| 2026-05-05 13:39 | 23.54617 | 46.65283 | 34779 ft | 534 kts | 98° |
| 2026-05-05 13:40 | 23.53871 | 46.73334 | 34777 ft | 534 kts | 98° |
| 2026-05-05 13:40 | 23.53119 | 46.81394 | 34767 ft | 535 kts | 98° |
| 2026-05-05 13:41 | 23.52366 | 46.89448 | 34769 ft | 534 kts | 98° |
| 2026-05-05 13:41 | 23.51609 | 46.97504 | 34740 ft | 534 kts | 99° |
| 2026-05-05 13:42 | 23.50853 | 47.05492 | 34733 ft | 534 kts | 99° |
| 2026-05-05 13:42 | 23.50089 | 47.13526 | 34743 ft | 533 kts | 99° |
| 2026-05-05 13:43 | 23.49320 | 47.21561 | 34736 ft | 533 kts | 99° |
| 2026-05-05 13:43 | 23.48548 | 47.29582 | 34742 ft | 532 kts | 99° |
| 2026-05-05 13:44 | 23.47774 | 47.37588 | 34747 ft | 531 kts | 99° |
| 2026-05-05 13:44 | 23.46997 | 47.45589 | 34738 ft | 531 kts | 99° |
| 2026-05-05 13:45 | 23.46217 | 47.53576 | 34741 ft | 530 kts | 99° |
| 2026-05-05 13:45 | 23.45439 | 47.61556 | 34748 ft | 530 kts | 99° |
| 2026-05-05 13:46 | 23.44661 | 47.69530 | 34735 ft | 529 kts | 99° |
| 2026-05-05 13:46 | 23.43880 | 47.77490 | 34735 ft | 528 kts | 99° |
| 2026-05-05 13:47 | 23.43094 | 47.85444 | 34739 ft | 528 kts | 99° |
| 2026-05-05 13:47 | 23.42303 | 47.93411 | 35099 ft | 529 kts | 99° |
| 2026-05-05 13:48 | 23.41907 | 47.97386 | 35493 ft | 527 kts | 99° |
| 2026-05-05 13:48 | 23.41512 | 48.01343 | 35897 ft | 524 kts | 99° |
| 2026-05-05 13:48 | 23.41119 | 48.05275 | 36261 ft | 522 kts | 99° |
| 2026-05-05 13:48 | 23.40724 | 48.09207 | 36578 ft | 522 kts | 99° |
| 2026-05-05 13:49 | 23.40327 | 48.13136 | 36681 ft | 524 kts | 99° |
| 2026-05-05 13:49 | 23.39934 | 48.17030 | 36722 ft | 525 kts | 99° |
| 2026-05-05 13:49 | 23.39401 | 48.22303 | 36715 ft | 523 kts | 99° |
| 2026-05-05 13:50 | 23.38192 | 48.31381 | 36725 ft | 513 kts | 109° |
| 2026-05-05 13:50 | 23.35101 | 48.39623 | 36722 ft | 502 kts | 125° |
| 2026-05-05 13:51 | 23.31354 | 48.45989 | 36728 ft | 500 kts | 128° |
| 2026-05-05 13:51 | 23.27540 | 48.52344 | 36723 ft | 503 kts | 127° |
| 2026-05-05 13:52 | 23.23752 | 48.58756 | 36723 ft | 505 kts | 127° |
| 2026-05-05 13:52 | 23.19971 | 48.65204 | 36721 ft | 507 kts | 127° |
| 2026-05-05 13:53 | 23.16176 | 48.71674 | 36718 ft | 507 kts | 127° |
| 2026-05-05 13:53 | 23.12379 | 48.78132 | 36714 ft | 507 kts | 127° |